sensor_id;sensor_type;location;lat;lon;timestamp;P1;durP1;ratioP1;P2;durP2;ratioP2
18793;SDS011;29610;49.022;12.114;2023-08-12T00:01:37;13.50;;;6.77;;
18793;SDS011;29610;49.022;12.114;2023-08-12T00:04:05;11.93;;;6.30;;
18793;SDS011;29610;49.022;12.114;2023-08-12T00:06:35;10.60;;;6.07;;
18793;SDS011;29610;49.022;12.114;2023-08-12T00:09:04;11.27;;;6.17;;
18793;SDS011;29610;49.022;12.114;2023-08-12T00:11:34;11.00;;;5.97;;
18793;SDS011;29610;49.022;12.114;2023-08-12T00:14:03;12.07;;;6.30;;
18793;SDS011;29610;49.022;12.114;2023-08-12T00:16:32;13.60;;;6.80;;
18793;SDS011;29610;49.022;12.114;2023-08-12T00:19:00;11.70;;;5.77;;
18793;SDS011;29610;49.022;12.114;2023-08-12T00:21:28;11.03;;;5.50;;
18793;SDS011;29610;49.022;12.114;2023-08-12T00:23:59;12.03;;;6.20;;
18793;SDS011;29610;49.022;12.114;2023-08-12T00:26:30;12.07;;;6.60;;
18793;SDS011;29610;49.022;12.114;2023-08-12T00:28:59;10.10;;;5.87;;
18793;SDS011;29610;49.022;12.114;2023-08-12T00:31:27;10.30;;;5.70;;
18793;SDS011;29610;49.022;12.114;2023-08-12T00:33:55;13.37;;;5.93;;
18793;SDS011;29610;49.022;12.114;2023-08-12T00:36:24;13.57;;;6.60;;
18793;SDS011;29610;49.022;12.114;2023-08-12T00:38:52;16.23;;;6.40;;
18793;SDS011;29610;49.022;12.114;2023-08-12T00:41:24;11.63;;;5.93;;
18793;SDS011;29610;49.022;12.114;2023-08-12T00:43:53;13.03;;;6.70;;
18793;SDS011;29610;49.022;12.114;2023-08-12T00:46:21;10.80;;;5.73;;
18793;SDS011;29610;49.022;12.114;2023-08-12T00:48:52;13.90;;;6.33;;
18793;SDS011;29610;49.022;12.114;2023-08-12T00:51:20;15.30;;;6.23;;
18793;SDS011;29610;49.022;12.114;2023-08-12T00:53:49;13.70;;;6.67;;
18793;SDS011;29610;49.022;12.114;2023-08-12T00:56:19;12.27;;;6.73;;
18793;SDS011;29610;49.022;12.114;2023-08-12T00:58:50;13.30;;;7.17;;
18793;SDS011;29610;49.022;12.114;2023-08-12T01:01:19;12.07;;;6.73;;
18793;SDS011;29610;49.022;12.114;2023-08-12T01:03:48;14.30;;;6.97;;
18793;SDS011;29610;49.022;12.114;2023-08-12T01:06:17;13.50;;;6.83;;
18793;SDS011;29610;49.022;12.114;2023-08-12T01:08:47;11.47;;;7.07;;
18793;SDS011;29610;49.022;12.114;2023-08-12T01:11:16;13.87;;;7.20;;
18793;SDS011;29610;49.022;12.114;2023-08-12T01:13:56;12.90;;;6.50;;
18793;SDS011;29610;49.022;12.114;2023-08-12T01:16:33;22.03;;;7.50;;
18793;SDS011;29610;49.022;12.114;2023-08-12T01:19:10;16.63;;;10.20;;
18793;SDS011;29610;49.022;12.114;2023-08-12T01:21:50;18.50;;;12.00;;
18793;SDS011;29610;49.022;12.114;2023-08-12T01:24:25;23.93;;;10.83;;
18793;SDS011;29610;49.022;12.114;2023-08-12T01:26:53;16.07;;;10.27;;
18793;SDS011;29610;49.022;12.114;2023-08-12T01:29:22;15.80;;;9.13;;
18793;SDS011;29610;49.022;12.114;2023-08-12T01:31:51;15.17;;;9.50;;
18793;SDS011;29610;49.022;12.114;2023-08-12T01:34:36;15.03;;;9.30;;
18793;SDS011;29610;49.022;12.114;2023-08-12T01:37:14;24.90;;;9.50;;
18793;SDS011;29610;49.022;12.114;2023-08-12T01:39:53;17.47;;;9.33;;
18793;SDS011;29610;49.022;12.114;2023-08-12T01:42:26;16.97;;;9.83;;
18793;SDS011;29610;49.022;12.114;2023-08-12T01:44:56;15.53;;;9.10;;
18793;SDS011;29610;49.022;12.114;2023-08-12T01:47:29;15.00;;;8.83;;
18793;SDS011;29610;49.022;12.114;2023-08-12T01:49:58;15.93;;;9.90;;
18793;SDS011;29610;49.022;12.114;2023-08-12T01:52:27;15.80;;;9.77;;
18793;SDS011;29610;49.022;12.114;2023-08-12T01:54:57;23.23;;;10.33;;
18793;SDS011;29610;49.022;12.114;2023-08-12T01:57:26;15.60;;;9.67;;
18793;SDS011;29610;49.022;12.114;2023-08-12T01:59:54;20.03;;;9.40;;
18793;SDS011;29610;49.022;12.114;2023-08-12T02:02:22;14.87;;;9.40;;
18793;SDS011;29610;49.022;12.114;2023-08-12T02:04:51;17.70;;;8.97;;
18793;SDS011;29610;49.022;12.114;2023-08-12T02:07:19;14.90;;;8.60;;
18793;SDS011;29610;49.022;12.114;2023-08-12T02:09:48;16.10;;;9.40;;
18793;SDS011;29610;49.022;12.114;2023-08-12T02:12:17;13.70;;;8.47;;
18793;SDS011;29610;49.022;12.114;2023-08-12T02:14:46;22.70;;;9.00;;
18793;SDS011;29610;49.022;12.114;2023-08-12T02:17:14;13.67;;;8.50;;
18793;SDS011;29610;49.022;12.114;2023-08-12T02:19:43;16.67;;;9.10;;
18793;SDS011;29610;49.022;12.114;2023-08-12T02:22:11;15.07;;;9.10;;
18793;SDS011;29610;49.022;12.114;2023-08-12T02:24:39;23.13;;;9.83;;
18793;SDS011;29610;49.022;12.114;2023-08-12T02:27:08;13.63;;;8.30;;
18793;SDS011;29610;49.022;12.114;2023-08-12T02:29:40;19.67;;;9.23;;
18793;SDS011;29610;49.022;12.114;2023-08-12T02:32:11;15.70;;;8.60;;
18793;SDS011;29610;49.022;12.114;2023-08-12T02:34:39;13.37;;;8.00;;
18793;SDS011;29610;49.022;12.114;2023-08-12T02:37:09;14.93;;;8.73;;
18793;SDS011;29610;49.022;12.114;2023-08-12T02:39:39;21.00;;;9.73;;
18793;SDS011;29610;49.022;12.114;2023-08-12T02:42:07;16.73;;;9.20;;
18793;SDS011;29610;49.022;12.114;2023-08-12T02:44:36;13.20;;;8.17;;
18793;SDS011;29610;49.022;12.114;2023-08-12T02:47:05;15.13;;;8.23;;
18793;SDS011;29610;49.022;12.114;2023-08-12T02:49:34;24.23;;;8.83;;
18793;SDS011;29610;49.022;12.114;2023-08-12T02:52:02;14.60;;;8.60;;
18793;SDS011;29610;49.022;12.114;2023-08-12T02:54:31;15.17;;;8.60;;
18793;SDS011;29610;49.022;12.114;2023-08-12T02:57:00;16.87;;;8.90;;
18793;SDS011;29610;49.022;12.114;2023-08-12T02:59:28;15.10;;;8.60;;
18793;SDS011;29610;49.022;12.114;2023-08-12T03:01:56;17.30;;;9.37;;
18793;SDS011;29610;49.022;12.114;2023-08-12T03:04:28;14.40;;;8.27;;
18793;SDS011;29610;49.022;12.114;2023-08-12T03:06:57;12.20;;;7.90;;
18793;SDS011;29610;49.022;12.114;2023-08-12T03:09:25;13.87;;;8.80;;
18793;SDS011;29610;49.022;12.114;2023-08-12T03:11:53;13.70;;;8.57;;
18793;SDS011;29610;49.022;12.114;2023-08-12T03:14:22;13.80;;;8.53;;
18793;SDS011;29610;49.022;12.114;2023-08-12T03:16:51;16.83;;;7.97;;
18793;SDS011;29610;49.022;12.114;2023-08-12T03:19:19;14.50;;;8.97;;
18793;SDS011;29610;49.022;12.114;2023-08-12T03:21:49;14.67;;;9.20;;
18793;SDS011;29610;49.022;12.114;2023-08-12T03:24:17;15.37;;;9.07;;
18793;SDS011;29610;49.022;12.114;2023-08-12T03:26:46;13.60;;;8.87;;
18793;SDS011;29610;49.022;12.114;2023-08-12T03:29:14;14.10;;;8.53;;
18793;SDS011;29610;49.022;12.114;2023-08-12T03:31:43;14.10;;;8.43;;
18793;SDS011;29610;49.022;12.114;2023-08-12T03:34:11;18.57;;;8.73;;
18793;SDS011;29610;49.022;12.114;2023-08-12T03:36:41;15.93;;;10.23;;
18793;SDS011;29610;49.022;12.114;2023-08-12T03:39:12;14.73;;;9.57;;
18793;SDS011;29610;49.022;12.114;2023-08-12T03:41:41;14.23;;;9.40;;
18793;SDS011;29610;49.022;12.114;2023-08-12T03:44:10;17.87;;;9.37;;
18793;SDS011;29610;49.022;12.114;2023-08-12T03:46:38;15.20;;;8.40;;
18793;SDS011;29610;49.022;12.114;2023-08-12T03:49:07;15.73;;;8.80;;
18793;SDS011;29610;49.022;12.114;2023-08-12T03:51:35;14.47;;;9.10;;
18793;SDS011;29610;49.022;12.114;2023-08-12T03:54:04;15.27;;;9.27;;
18793;SDS011;29610;49.022;12.114;2023-08-12T03:56:34;14.33;;;9.00;;
18793;SDS011;29610;49.022;12.114;2023-08-12T03:59:03;17.30;;;9.60;;
18793;SDS011;29610;49.022;12.114;2023-08-12T04:01:31;14.40;;;8.60;;
18793;SDS011;29610;49.022;12.114;2023-08-12T04:04:00;16.50;;;9.90;;
18793;SDS011;29610;49.022;12.114;2023-08-12T04:06:28;18.97;;;9.93;;
18793;SDS011;29610;49.022;12.114;2023-08-12T04:08:56;18.93;;;11.27;;
18793;SDS011;29610;49.022;12.114;2023-08-12T04:11:25;17.77;;;10.97;;
18793;SDS011;29610;49.022;12.114;2023-08-12T04:13:54;15.07;;;9.33;;
18793;SDS011;29610;49.022;12.114;2023-08-12T04:16:23;16.17;;;9.60;;
18793;SDS011;29610;49.022;12.114;2023-08-12T04:18:51;15.40;;;9.20;;
18793;SDS011;29610;49.022;12.114;2023-08-12T04:21:20;21.53;;;10.10;;
18793;SDS011;29610;49.022;12.114;2023-08-12T04:23:48;18.83;;;11.63;;
18793;SDS011;29610;49.022;12.114;2023-08-12T04:26:17;17.30;;;9.70;;
18793;SDS011;29610;49.022;12.114;2023-08-12T04:28:46;18.37;;;10.83;;
18793;SDS011;29610;49.022;12.114;2023-08-12T04:31:16;17.50;;;10.33;;
18793;SDS011;29610;49.022;12.114;2023-08-12T04:33:45;15.90;;;9.50;;
18793;SDS011;29610;49.022;12.114;2023-08-12T04:36:13;17.87;;;10.80;;
18793;SDS011;29610;49.022;12.114;2023-08-12T04:38:42;17.00;;;10.80;;
18793;SDS011;29610;49.022;12.114;2023-08-12T04:41:11;20.40;;;10.50;;
18793;SDS011;29610;49.022;12.114;2023-08-12T04:43:39;26.50;;;9.83;;
18793;SDS011;29610;49.022;12.114;2023-08-12T04:46:08;18.30;;;10.40;;
18793;SDS011;29610;49.022;12.114;2023-08-12T04:48:38;15.60;;;8.90;;
18793;SDS011;29610;49.022;12.114;2023-08-12T04:51:06;13.60;;;8.00;;
18793;SDS011;29610;49.022;12.114;2023-08-12T04:53:34;16.50;;;9.27;;
18793;SDS011;29610;49.022;12.114;2023-08-12T04:56:04;14.83;;;9.27;;
18793;SDS011;29610;49.022;12.114;2023-08-12T04:58:33;19.40;;;11.20;;
18793;SDS011;29610;49.022;12.114;2023-08-12T05:01:03;16.50;;;10.13;;
18793;SDS011;29610;49.022;12.114;2023-08-12T05:03:31;16.97;;;10.80;;
18793;SDS011;29610;49.022;12.114;2023-08-12T05:06:01;24.00;;;10.10;;
18793;SDS011;29610;49.022;12.114;2023-08-12T05:08:30;16.40;;;9.93;;
18793;SDS011;29610;49.022;12.114;2023-08-12T05:10:59;16.47;;;9.17;;
18793;SDS011;29610;49.022;12.114;2023-08-12T05:13:28;15.33;;;9.50;;
18793;SDS011;29610;49.022;12.114;2023-08-12T05:15:57;19.17;;;8.57;;
18793;SDS011;29610;49.022;12.114;2023-08-12T05:18:26;13.20;;;7.60;;
18793;SDS011;29610;49.022;12.114;2023-08-12T05:20:56;17.23;;;8.17;;
18793;SDS011;29610;49.022;12.114;2023-08-12T05:23:28;13.30;;;7.63;;
18793;SDS011;29610;49.022;12.114;2023-08-12T05:25:56;12.80;;;7.70;;
18793;SDS011;29610;49.022;12.114;2023-08-12T05:28:25;12.73;;;8.20;;
18793;SDS011;29610;49.022;12.114;2023-08-12T05:30:53;12.73;;;7.00;;
18793;SDS011;29610;49.022;12.114;2023-08-12T05:33:22;21.70;;;8.37;;
18793;SDS011;29610;49.022;12.114;2023-08-12T05:35:50;11.70;;;6.30;;
18793;SDS011;29610;49.022;12.114;2023-08-12T05:38:18;10.90;;;6.40;;
18793;SDS011;29610;49.022;12.114;2023-08-12T05:40:48;13.57;;;6.40;;
18793;SDS011;29610;49.022;12.114;2023-08-12T05:43:16;13.27;;;6.70;;
18793;SDS011;29610;49.022;12.114;2023-08-12T05:45:45;9.27;;;5.20;;
18793;SDS011;29610;49.022;12.114;2023-08-12T05:48:16;15.00;;;6.00;;
18793;SDS011;29610;49.022;12.114;2023-08-12T05:50:44;10.27;;;5.47;;
18793;SDS011;29610;49.022;12.114;2023-08-12T05:53:12;10.20;;;6.13;;
18793;SDS011;29610;49.022;12.114;2023-08-12T05:55:41;8.80;;;4.70;;
18793;SDS011;29610;49.022;12.114;2023-08-12T05:58:10;11.73;;;4.93;;
18793;SDS011;29610;49.022;12.114;2023-08-12T06:00:39;9.70;;;5.27;;
18793;SDS011;29610;49.022;12.114;2023-08-12T06:03:11;10.27;;;5.00;;
18793;SDS011;29610;49.022;12.114;2023-08-12T06:05:40;9.00;;;4.90;;
18793;SDS011;29610;49.022;12.114;2023-08-12T06:08:10;11.00;;;5.70;;
18793;SDS011;29610;49.022;12.114;2023-08-12T06:10:39;10.00;;;5.23;;
18793;SDS011;29610;49.022;12.114;2023-08-12T06:13:08;9.20;;;5.00;;
18793;SDS011;29610;49.022;12.114;2023-08-12T06:15:38;9.50;;;4.80;;
18793;SDS011;29610;49.022;12.114;2023-08-12T06:18:06;11.20;;;4.67;;
18793;SDS011;29610;49.022;12.114;2023-08-12T06:20:34;10.53;;;4.80;;
18793;SDS011;29610;49.022;12.114;2023-08-12T06:23:03;11.23;;;4.57;;
18793;SDS011;29610;49.022;12.114;2023-08-12T06:25:31;9.30;;;4.83;;
18793;SDS011;29610;49.022;12.114;2023-08-12T06:27:59;9.20;;;4.43;;
18793;SDS011;29610;49.022;12.114;2023-08-12T06:30:28;9.17;;;4.23;;
18793;SDS011;29610;49.022;12.114;2023-08-12T06:32:57;13.33;;;4.77;;
18793;SDS011;29610;49.022;12.114;2023-08-12T06:35:26;9.60;;;4.37;;
18793;SDS011;29610;49.022;12.114;2023-08-12T06:37:54;8.73;;;4.07;;
18793;SDS011;29610;49.022;12.114;2023-08-12T06:40:22;10.40;;;4.70;;
18793;SDS011;29610;49.022;12.114;2023-08-12T06:42:50;9.90;;;4.30;;
18793;SDS011;29610;49.022;12.114;2023-08-12T06:45:19;9.27;;;4.20;;
18793;SDS011;29610;49.022;12.114;2023-08-12T06:47:47;12.00;;;4.30;;
18793;SDS011;29610;49.022;12.114;2023-08-12T06:50:16;10.00;;;4.10;;
18793;SDS011;29610;49.022;12.114;2023-08-12T06:52:45;10.10;;;4.23;;
18793;SDS011;29610;49.022;12.114;2023-08-12T06:55:13;11.00;;;3.53;;
18793;SDS011;29610;49.022;12.114;2023-08-12T06:57:41;9.00;;;3.90;;
18793;SDS011;29610;49.022;12.114;2023-08-12T07:00:10;8.90;;;4.10;;
18793;SDS011;29610;49.022;12.114;2023-08-12T07:02:39;8.50;;;3.83;;
18793;SDS011;29610;49.022;12.114;2023-08-12T07:05:09;13.57;;;3.97;;
18793;SDS011;29610;49.022;12.114;2023-08-12T07:07:39;8.20;;;3.40;;
18793;SDS011;29610;49.022;12.114;2023-08-12T07:10:07;12.50;;;3.33;;
18793;SDS011;29610;49.022;12.114;2023-08-12T07:12:36;8.70;;;3.70;;
18793;SDS011;29610;49.022;12.114;2023-08-12T07:15:05;9.90;;;3.53;;
18793;SDS011;29610;49.022;12.114;2023-08-12T07:17:34;9.20;;;4.37;;
18793;SDS011;29610;49.022;12.114;2023-08-12T07:20:03;8.60;;;3.60;;
18793;SDS011;29610;49.022;12.114;2023-08-12T07:22:32;10.53;;;4.10;;
18793;SDS011;29610;49.022;12.114;2023-08-12T07:25:02;8.97;;;4.20;;
18793;SDS011;29610;49.022;12.114;2023-08-12T07:27:31;7.90;;;3.33;;
18793;SDS011;29610;49.022;12.114;2023-08-12T07:30:00;9.83;;;3.80;;
18793;SDS011;29610;49.022;12.114;2023-08-12T07:32:28;12.30;;;3.80;;
18793;SDS011;29610;49.022;12.114;2023-08-12T07:34:56;8.63;;;3.57;;
18793;SDS011;29610;49.022;12.114;2023-08-12T07:37:25;11.77;;;3.60;;
18793;SDS011;29610;49.022;12.114;2023-08-12T07:39:53;9.10;;;3.00;;
18793;SDS011;29610;49.022;12.114;2023-08-12T07:42:23;9.10;;;3.60;;
18793;SDS011;29610;49.022;12.114;2023-08-12T07:44:51;10.73;;;3.00;;
18793;SDS011;29610;49.022;12.114;2023-08-12T07:47:19;12.47;;;4.00;;
18793;SDS011;29610;49.022;12.114;2023-08-12T07:49:48;9.10;;;3.60;;
18793;SDS011;29610;49.022;12.114;2023-08-12T07:52:16;12.33;;;3.00;;
18793;SDS011;29610;49.022;12.114;2023-08-12T07:54:44;11.83;;;4.40;;
18793;SDS011;29610;49.022;12.114;2023-08-12T07:57:13;11.10;;;3.17;;
18793;SDS011;29610;49.022;12.114;2023-08-12T07:59:42;9.37;;;4.00;;
18793;SDS011;29610;49.022;12.114;2023-08-12T08:02:10;10.53;;;4.43;;
18793;SDS011;29610;49.022;12.114;2023-08-12T08:04:39;8.33;;;3.30;;
18793;SDS011;29610;49.022;12.114;2023-08-12T08:07:07;9.73;;;3.60;;
18793;SDS011;29610;49.022;12.114;2023-08-12T08:09:36;9.80;;;3.60;;
18793;SDS011;29610;49.022;12.114;2023-08-12T08:12:04;9.43;;;3.60;;
18793;SDS011;29610;49.022;12.114;2023-08-12T08:14:34;9.00;;;3.30;;
18793;SDS011;29610;49.022;12.114;2023-08-12T08:17:04;8.07;;;3.17;;
18793;SDS011;29610;49.022;12.114;2023-08-12T08:19:33;7.93;;;3.03;;
18793;SDS011;29610;49.022;12.114;2023-08-12T08:22:01;9.73;;;3.20;;
18793;SDS011;29610;49.022;12.114;2023-08-12T08:24:29;10.27;;;3.27;;
18793;SDS011;29610;49.022;12.114;2023-08-12T08:26:57;8.37;;;3.10;;
18793;SDS011;29610;49.022;12.114;2023-08-12T08:29:26;10.03;;;3.83;;
18793;SDS011;29610;49.022;12.114;2023-08-12T08:31:54;8.07;;;2.90;;
18793;SDS011;29610;49.022;12.114;2023-08-12T08:34:24;8.77;;;3.03;;
18793;SDS011;29610;49.022;12.114;2023-08-12T08:36:52;9.00;;;3.10;;
18793;SDS011;29610;49.022;12.114;2023-08-12T08:39:20;8.60;;;3.10;;
18793;SDS011;29610;49.022;12.114;2023-08-12T08:41:49;8.07;;;2.80;;
18793;SDS011;29610;49.022;12.114;2023-08-12T08:44:17;8.10;;;3.20;;
18793;SDS011;29610;49.022;12.114;2023-08-12T08:46:50;7.70;;;2.80;;
18793;SDS011;29610;49.022;12.114;2023-08-12T08:49:21;12.67;;;3.20;;
18793;SDS011;29610;49.022;12.114;2023-08-12T08:51:52;11.40;;;3.70;;
18793;SDS011;29610;49.022;12.114;2023-08-12T08:54:21;12.57;;;6.00;;
18793;SDS011;29610;49.022;12.114;2023-08-12T08:56:49;14.13;;;3.23;;
18793;SDS011;29610;49.022;12.114;2023-08-12T08:59:20;8.90;;;2.90;;
18793;SDS011;29610;49.022;12.114;2023-08-12T09:01:49;9.03;;;3.30;;
18793;SDS011;29610;49.022;12.114;2023-08-12T09:04:19;9.50;;;3.17;;
18793;SDS011;29610;49.022;12.114;2023-08-12T09:06:51;7.77;;;2.90;;
18793;SDS011;29610;49.022;12.114;2023-08-12T09:09:21;7.93;;;2.77;;
18793;SDS011;29610;49.022;12.114;2023-08-12T09:11:51;7.90;;;2.30;;
18793;SDS011;29610;49.022;12.114;2023-08-12T09:14:20;8.20;;;3.00;;
18793;SDS011;29610;49.022;12.114;2023-08-12T09:16:49;8.53;;;3.47;;
18793;SDS011;29610;49.022;12.114;2023-08-12T09:19:17;8.70;;;3.20;;
18793;SDS011;29610;49.022;12.114;2023-08-12T09:21:47;8.67;;;3.37;;
18793;SDS011;29610;49.022;12.114;2023-08-12T09:24:23;14.23;;;3.30;;
18793;SDS011;29610;49.022;12.114;2023-08-12T09:26:52;10.20;;;2.93;;
18793;SDS011;29610;49.022;12.114;2023-08-12T09:29:22;10.77;;;3.20;;
18793;SDS011;29610;49.022;12.114;2023-08-12T09:31:51;9.10;;;3.20;;
18793;SDS011;29610;49.022;12.114;2023-08-12T09:34:19;8.60;;;3.17;;
18793;SDS011;29610;49.022;12.114;2023-08-12T09:36:48;9.57;;;2.87;;
18793;SDS011;29610;49.022;12.114;2023-08-12T09:39:17;9.80;;;2.87;;
18793;SDS011;29610;49.022;12.114;2023-08-12T09:41:46;7.00;;;2.40;;
18793;SDS011;29610;49.022;12.114;2023-08-12T09:44:16;8.30;;;3.10;;
18793;SDS011;29610;49.022;12.114;2023-08-12T09:46:44;12.00;;;3.00;;
18793;SDS011;29610;49.022;12.114;2023-08-12T09:49:13;8.27;;;3.00;;
18793;SDS011;29610;49.022;12.114;2023-08-12T09:51:41;7.23;;;2.27;;
18793;SDS011;29610;49.022;12.114;2023-08-12T09:54:10;7.27;;;2.50;;
18793;SDS011;29610;49.022;12.114;2023-08-12T09:56:44;8.60;;;2.90;;
18793;SDS011;29610;49.022;12.114;2023-08-12T09:59:16;9.27;;;2.50;;
18793;SDS011;29610;49.022;12.114;2023-08-12T10:01:49;9.50;;;2.57;;
18793;SDS011;29610;49.022;12.114;2023-08-12T10:04:21;12.53;;;2.80;;
18793;SDS011;29610;49.022;12.114;2023-08-12T10:06:54;9.83;;;2.47;;
18793;SDS011;29610;49.022;12.114;2023-08-12T10:09:23;7.73;;;2.57;;
18793;SDS011;29610;49.022;12.114;2023-08-12T10:11:53;6.90;;;2.07;;
18793;SDS011;29610;49.022;12.114;2023-08-12T10:14:23;7.43;;;2.00;;
18793;SDS011;29610;49.022;12.114;2023-08-12T10:16:51;7.00;;;1.93;;
18793;SDS011;29610;49.022;12.114;2023-08-12T10:19:34;7.63;;;1.93;;
18793;SDS011;29610;49.022;12.114;2023-08-12T10:22:03;8.33;;;2.33;;
18793;SDS011;29610;49.022;12.114;2023-08-12T10:24:33;6.60;;;1.80;;
18793;SDS011;29610;49.022;12.114;2023-08-12T10:27:06;20.97;;;2.70;;
18793;SDS011;29610;49.022;12.114;2023-08-12T10:29:35;7.10;;;2.00;;
18793;SDS011;29610;49.022;12.114;2023-08-12T10:32:03;9.43;;;2.40;;
18793;SDS011;29610;49.022;12.114;2023-08-12T10:34:32;7.53;;;2.43;;
18793;SDS011;29610;49.022;12.114;2023-08-12T10:37:01;7.60;;;2.10;;
18793;SDS011;29610;49.022;12.114;2023-08-12T10:39:31;7.43;;;2.17;;
18793;SDS011;29610;49.022;12.114;2023-08-12T10:42:00;7.47;;;2.37;;
18793;SDS011;29610;49.022;12.114;2023-08-12T10:44:37;7.73;;;2.20;;
18793;SDS011;29610;49.022;12.114;2023-08-12T10:47:08;7.07;;;2.37;;
18793;SDS011;29610;49.022;12.114;2023-08-12T10:49:38;9.10;;;2.43;;
18793;SDS011;29610;49.022;12.114;2023-08-12T10:52:19;7.73;;;2.47;;
18793;SDS011;29610;49.022;12.114;2023-08-12T10:54:55;7.77;;;2.40;;
18793;SDS011;29610;49.022;12.114;2023-08-12T10:57:44;9.63;;;2.53;;
18793;SDS011;29610;49.022;12.114;2023-08-12T11:00:15;9.60;;;2.33;;
18793;SDS011;29610;49.022;12.114;2023-08-12T11:02:44;8.67;;;2.20;;
18793;SDS011;29610;49.022;12.114;2023-08-12T11:05:16;7.87;;;2.10;;
18793;SDS011;29610;49.022;12.114;2023-08-12T11:07:46;10.87;;;2.40;;
18793;SDS011;29610;49.022;12.114;2023-08-12T11:10:17;7.80;;;2.00;;
18793;SDS011;29610;49.022;12.114;2023-08-12T11:12:48;8.90;;;2.80;;
18793;SDS011;29610;49.022;12.114;2023-08-12T11:15:30;10.27;;;2.30;;
18793;SDS011;29610;49.022;12.114;2023-08-12T11:18:01;7.47;;;2.20;;
18793;SDS011;29610;49.022;12.114;2023-08-12T11:20:31;9.00;;;2.90;;
18793;SDS011;29610;49.022;12.114;2023-08-12T11:23:00;6.93;;;2.20;;
18793;SDS011;29610;49.022;12.114;2023-08-12T11:25:30;7.77;;;1.80;;
18793;SDS011;29610;49.022;12.114;2023-08-12T11:28:00;7.23;;;2.20;;
18793;SDS011;29610;49.022;12.114;2023-08-12T11:30:30;6.87;;;1.97;;
18793;SDS011;29610;49.022;12.114;2023-08-12T11:32:59;10.70;;;2.63;;
18793;SDS011;29610;49.022;12.114;2023-08-12T11:35:29;6.60;;;2.03;;
18793;SDS011;29610;49.022;12.114;2023-08-12T11:37:58;9.57;;;1.80;;
18793;SDS011;29610;49.022;12.114;2023-08-12T11:40:27;9.43;;;2.13;;
18793;SDS011;29610;49.022;12.114;2023-08-12T11:42:56;14.53;;;1.90;;
18793;SDS011;29610;49.022;12.114;2023-08-12T11:45:24;7.53;;;1.90;;
18793;SDS011;29610;49.022;12.114;2023-08-12T11:47:56;10.83;;;2.00;;
18793;SDS011;29610;49.022;12.114;2023-08-12T11:50:24;7.57;;;1.80;;
18793;SDS011;29610;49.022;12.114;2023-08-12T11:52:55;7.70;;;1.80;;
18793;SDS011;29610;49.022;12.114;2023-08-12T11:55:25;8.67;;;2.20;;
18793;SDS011;29610;49.022;12.114;2023-08-12T11:57:53;6.10;;;1.80;;
18793;SDS011;29610;49.022;12.114;2023-08-12T12:00:22;9.00;;;1.87;;
18793;SDS011;29610;49.022;12.114;2023-08-12T12:02:54;6.40;;;1.53;;
18793;SDS011;29610;49.022;12.114;2023-08-12T12:05:25;6.57;;;2.00;;
18793;SDS011;29610;49.022;12.114;2023-08-12T12:07:56;7.10;;;2.03;;
18793;SDS011;29610;49.022;12.114;2023-08-12T12:10:26;10.37;;;1.90;;
18793;SDS011;29610;49.022;12.114;2023-08-12T12:13:01;7.17;;;1.90;;
18793;SDS011;29610;49.022;12.114;2023-08-12T12:15:31;6.43;;;1.83;;
18793;SDS011;29610;49.022;12.114;2023-08-12T12:18:10;7.47;;;2.03;;
18793;SDS011;29610;49.022;12.114;2023-08-12T12:20:53;7.23;;;1.90;;
18793;SDS011;29610;49.022;12.114;2023-08-12T12:23:26;6.67;;;1.80;;
18793;SDS011;29610;49.022;12.114;2023-08-12T12:25:56;5.93;;;1.50;;
18793;SDS011;29610;49.022;12.114;2023-08-12T12:28:26;5.90;;;1.70;;
18793;SDS011;29610;49.022;12.114;2023-08-12T12:30:55;6.50;;;1.73;;
18793;SDS011;29610;49.022;12.114;2023-08-12T12:33:26;6.83;;;1.80;;
18793;SDS011;29610;49.022;12.114;2023-08-12T12:35:54;14.50;;;1.80;;
18793;SDS011;29610;49.022;12.114;2023-08-12T12:38:27;6.20;;;1.60;;
18793;SDS011;29610;49.022;12.114;2023-08-12T12:40:56;5.73;;;1.60;;
18793;SDS011;29610;49.022;12.114;2023-08-12T12:43:24;8.57;;;1.70;;
18793;SDS011;29610;49.022;12.114;2023-08-12T12:45:52;8.70;;;1.90;;
18793;SDS011;29610;49.022;12.114;2023-08-12T12:48:20;6.10;;;1.97;;
18793;SDS011;29610;49.022;12.114;2023-08-12T12:50:50;6.30;;;2.00;;
18793;SDS011;29610;49.022;12.114;2023-08-12T12:53:18;6.90;;;1.60;;
18793;SDS011;29610;49.022;12.114;2023-08-12T12:55:46;8.27;;;1.60;;
18793;SDS011;29610;49.022;12.114;2023-08-12T12:58:15;5.70;;;1.43;;
18793;SDS011;29610;49.022;12.114;2023-08-12T13:00:43;7.43;;;1.73;;
18793;SDS011;29610;49.022;12.114;2023-08-12T13:03:12;6.53;;;2.00;;
18793;SDS011;29610;49.022;12.114;2023-08-12T13:05:40;8.10;;;1.90;;
18793;SDS011;29610;49.022;12.114;2023-08-12T13:08:10;7.47;;;1.70;;
18793;SDS011;29610;49.022;12.114;2023-08-12T13:10:38;6.53;;;1.53;;
18793;SDS011;29610;49.022;12.114;2023-08-12T13:13:06;7.10;;;2.37;;
18793;SDS011;29610;49.022;12.114;2023-08-12T13:15:34;10.73;;;2.03;;
18793;SDS011;29610;49.022;12.114;2023-08-12T13:18:03;11.43;;;1.80;;
18793;SDS011;29610;49.022;12.114;2023-08-12T13:20:32;6.17;;;1.67;;
18793;SDS011;29610;49.022;12.114;2023-08-12T13:23:00;6.60;;;1.77;;
18793;SDS011;29610;49.022;12.114;2023-08-12T13:25:30;9.83;;;1.83;;
18793;SDS011;29610;49.022;12.114;2023-08-12T13:28:00;5.73;;;1.47;;
18793;SDS011;29610;49.022;12.114;2023-08-12T13:30:30;6.60;;;1.73;;
18793;SDS011;29610;49.022;12.114;2023-08-12T13:32:59;6.73;;;1.80;;
18793;SDS011;29610;49.022;12.114;2023-08-12T13:35:27;7.53;;;1.77;;
18793;SDS011;29610;49.022;12.114;2023-08-12T13:37:56;6.17;;;1.97;;
18793;SDS011;29610;49.022;12.114;2023-08-12T13:40:24;6.00;;;1.80;;
18793;SDS011;29610;49.022;12.114;2023-08-12T13:42:54;9.33;;;2.30;;
18793;SDS011;29610;49.022;12.114;2023-08-12T13:45:22;6.33;;;1.70;;
18793;SDS011;29610;49.022;12.114;2023-08-12T13:47:51;9.33;;;2.37;;
18793;SDS011;29610;49.022;12.114;2023-08-12T13:50:19;6.90;;;2.10;;
18793;SDS011;29610;49.022;12.114;2023-08-12T13:52:48;9.13;;;2.00;;
18793;SDS011;29610;49.022;12.114;2023-08-12T13:55:16;6.57;;;1.77;;
18793;SDS011;29610;49.022;12.114;2023-08-12T13:57:45;6.60;;;2.07;;
18793;SDS011;29610;49.022;12.114;2023-08-12T14:00:14;8.40;;;1.80;;
18793;SDS011;29610;49.022;12.114;2023-08-12T14:02:43;10.50;;;2.20;;
18793;SDS011;29610;49.022;12.114;2023-08-12T14:05:11;6.70;;;1.73;;
18793;SDS011;29610;49.022;12.114;2023-08-12T14:07:40;7.73;;;1.83;;
18793;SDS011;29610;49.022;12.114;2023-08-12T14:10:08;10.07;;;2.13;;
18793;SDS011;29610;49.022;12.114;2023-08-12T14:12:37;7.93;;;1.90;;
18793;SDS011;29610;49.022;12.114;2023-08-12T14:15:05;6.60;;;1.80;;
18793;SDS011;29610;49.022;12.114;2023-08-12T14:17:36;7.30;;;1.63;;
18793;SDS011;29610;49.022;12.114;2023-08-12T14:20:05;7.53;;;2.40;;
18793;SDS011;29610;49.022;12.114;2023-08-12T14:22:35;7.40;;;2.27;;
18793;SDS011;29610;49.022;12.114;2023-08-12T14:25:03;6.63;;;2.00;;
18793;SDS011;29610;49.022;12.114;2023-08-12T14:27:33;7.97;;;2.00;;
18793;SDS011;29610;49.022;12.114;2023-08-12T14:30:02;7.20;;;2.53;;
18793;SDS011;29610;49.022;12.114;2023-08-12T14:32:30;11.00;;;2.80;;
18793;SDS011;29610;49.022;12.114;2023-08-12T14:35:00;10.23;;;2.97;;
18793;SDS011;29610;49.022;12.114;2023-08-12T14:37:28;8.23;;;2.60;;
18793;SDS011;29610;49.022;12.114;2023-08-12T14:39:57;9.80;;;2.47;;